createdAt,value
2023-04-29T00:00:14.193Z,3.00
2023-04-29T00:02:41.360Z,2.88
2023-04-29T00:05:08.990Z,2.67
2023-04-29T00:07:36.509Z,2.60
2023-04-29T00:10:03.640Z,2.70
2023-04-29T00:12:31.874Z,2.47
2023-04-29T00:14:59.269Z,2.50
2023-04-29T00:17:26.229Z,2.70
2023-04-29T00:19:53.240Z,2.72
2023-04-29T00:22:22.597Z,2.50
2023-04-29T00:24:49.456Z,2.80
2023-04-29T00:27:17.638Z,2.83
2023-04-29T00:29:45.024Z,3.08
2023-04-29T00:32:12.196Z,2.77
2023-04-29T00:34:39.726Z,2.88
2023-04-29T00:37:07.393Z,2.83
2023-04-29T00:39:34.255Z,2.42
2023-04-29T00:42:03.319Z,2.50
2023-04-29T00:44:30.302Z,2.95
2023-04-29T00:46:57.456Z,2.80
2023-04-29T00:49:24.168Z,2.97
2023-04-29T00:51:53.703Z,3.05
2023-04-29T00:54:21.119Z,2.70
2023-04-29T00:56:49.157Z,2.80
2023-04-29T00:59:17.094Z,2.90
2023-04-29T01:01:44.720Z,3.00
2023-04-29T01:04:12.363Z,2.75
2023-04-29T01:06:54.420Z,3.05
2023-04-29T01:09:32.334Z,2.92
2023-04-29T01:12:15.527Z,3.25
2023-04-29T01:14:48.351Z,3.00
2023-04-29T01:17:19.546Z,3.15
2023-04-29T01:19:53.004Z,3.10
2023-04-29T01:22:22.258Z,2.90
2023-04-29T01:24:49.633Z,3.07
2023-04-29T01:27:29.818Z,2.97
2023-04-29T01:30:15.157Z,3.07
2023-04-29T01:33:00.098Z,3.05
2023-04-29T01:35:34.635Z,3.42
2023-04-29T01:38:37.713Z,2.95
2023-04-29T01:41:13.579Z,3.05
2023-04-29T01:43:41.756Z,3.28
2023-04-29T01:46:21.453Z,2.83
2023-04-29T01:48:54.513Z,3.17
2023-04-29T01:51:21.829Z,3.20
2023-04-29T01:53:49.146Z,3.10
2023-04-29T01:56:16.179Z,3.08
2023-04-29T01:59:01.746Z,3.40
2023-04-29T02:01:43.700Z,3.10
2023-04-29T02:04:10.549Z,3.05
2023-04-29T02:06:38.381Z,2.97
2023-04-29T02:09:05.665Z,3.05
2023-04-29T02:11:34.001Z,3.30
2023-04-29T02:14:01.731Z,2.90
2023-04-29T02:16:28.692Z,3.03
2023-04-29T02:18:58.844Z,2.80
2023-04-29T02:21:27.065Z,3.13
2023-04-29T02:23:54.458Z,2.80
2023-04-29T02:26:24.010Z,2.83
2023-04-29T02:28:52.473Z,3.20
2023-04-29T02:31:21.158Z,2.77
2023-04-29T02:33:48.875Z,2.92
2023-04-29T02:36:15.749Z,2.78
2023-04-29T02:38:43.951Z,2.80
2023-04-29T02:41:10.945Z,2.78
2023-04-29T02:43:37.755Z,2.58
2023-04-29T02:46:05.423Z,2.90
2023-04-29T02:48:32.458Z,2.40
2023-04-29T02:50:59.352Z,2.63
2023-04-29T02:53:26.140Z,2.50
2023-04-29T02:55:53.015Z,2.50
2023-04-29T02:58:19.924Z,2.40
2023-04-29T03:00:46.802Z,2.63
2023-04-29T03:03:13.692Z,2.72
2023-04-29T03:05:40.724Z,2.63
2023-04-29T03:08:07.799Z,2.47
2023-04-29T03:10:34.659Z,2.30
2023-04-29T03:13:02.761Z,2.55
2023-04-29T03:15:31.195Z,2.40
2023-04-29T03:18:01.631Z,2.53
2023-04-29T03:20:29.635Z,2.50
2023-04-29T03:22:56.553Z,2.30
2023-04-29T03:25:23.955Z,2.42
2023-04-29T03:27:51.508Z,2.22
2023-04-29T03:30:18.507Z,2.20
2023-04-29T03:32:50.001Z,2.40
2023-04-29T03:35:16.908Z,2.25
2023-04-29T03:38:04.023Z,2.30
2023-04-29T03:40:33.418Z,2.40
2023-04-29T03:43:01.081Z,2.20
2023-04-29T03:45:28.014Z,2.38
2023-04-29T03:47:55.109Z,2.15
2023-04-29T03:50:23.200Z,2.00
2023-04-29T03:52:50.032Z,2.33
2023-04-29T03:55:18.701Z,2.33
2023-04-29T03:57:45.754Z,2.20
2023-04-29T04:00:14.329Z,2.40
2023-04-29T04:02:45.020Z,1.98
2023-04-29T04:05:12.271Z,2.30
2023-04-29T04:07:42.202Z,1.95
2023-04-29T04:10:28.426Z,2.00
2023-04-29T04:12:56.535Z,2.05
2023-04-29T04:15:23.606Z,2.10
2023-04-29T04:17:50.610Z,2.20
2023-04-29T04:20:17.570Z,1.97
2023-04-29T04:22:45.255Z,2.00
2023-04-29T04:25:19.607Z,2.33
2023-04-29T04:27:46.535Z,2.10
2023-04-29T04:30:22.956Z,2.15
2023-04-29T04:32:49.914Z,2.10
2023-04-29T04:35:17.081Z,2.10
2023-04-29T04:37:44.040Z,2.00
2023-04-29T04:40:11.988Z,1.88
2023-04-29T04:42:56.239Z,2.10
2023-04-29T04:45:23.253Z,1.88
2023-04-29T04:47:51.622Z,2.10
2023-04-29T04:50:22.388Z,2.00
2023-04-29T04:52:51.794Z,2.08
2023-04-29T04:55:38.853Z,2.00
2023-04-29T04:58:06.023Z,1.85
2023-04-29T05:00:32.921Z,1.93
2023-04-29T05:03:00.341Z,1.83
2023-04-29T05:05:27.342Z,1.85
2023-04-29T05:07:54.380Z,1.83
2023-04-29T05:10:27.137Z,1.80
2023-04-29T05:12:57.102Z,1.90
2023-04-29T05:15:24.216Z,1.90
2023-04-29T05:17:53.014Z,1.98
2023-04-29T05:20:21.241Z,1.95
2023-04-29T05:22:48.173Z,1.88
2023-04-29T05:25:15.474Z,1.80
2023-04-29T05:27:42.700Z,1.60
2023-04-29T05:30:14.391Z,1.90
2023-04-29T05:32:41.595Z,1.70
2023-04-29T05:35:12.581Z,1.73
2023-04-29T05:37:39.527Z,1.70
2023-04-29T05:40:18.998Z,1.90
2023-04-29T05:42:47.354Z,1.70
2023-04-29T05:45:14.434Z,1.90
2023-04-29T05:47:41.313Z,1.95
2023-04-29T05:50:08.663Z,2.20
2023-04-29T05:52:35.459Z,2.00
2023-04-29T05:55:02.315Z,2.10
2023-04-29T05:57:29.262Z,2.10
2023-04-29T05:59:56.460Z,1.90
2023-04-29T06:02:23.940Z,2.10
2023-04-29T06:04:51.762Z,2.00
2023-04-29T06:07:42.643Z,2.25
2023-04-29T06:10:29.457Z,2.00
2023-04-29T06:12:56.352Z,2.10
2023-04-29T06:15:23.394Z,2.10
2023-04-29T06:17:50.505Z,1.75
2023-04-29T06:20:18.211Z,1.98
2023-04-29T06:22:45.273Z,1.85
2023-04-29T06:25:12.092Z,2.10
2023-04-29T06:27:46.521Z,2.00
2023-04-29T06:30:14.709Z,1.85
2023-04-29T06:32:41.607Z,2.17
2023-04-29T06:35:09.260Z,1.93
2023-04-29T06:37:56.643Z,2.10
2023-04-29T06:40:52.868Z,2.05
2023-04-29T06:43:38.350Z,2.10
2023-04-29T06:46:23.887Z,2.00
2023-04-29T06:49:10.035Z,2.00
2023-04-29T06:51:40.072Z,2.20
2023-04-29T06:54:06.974Z,2.30
2023-04-29T06:56:33.997Z,2.20
2023-04-29T06:59:00.814Z,2.13
2023-04-29T07:01:27.901Z,2.55
2023-04-29T07:03:54.970Z,2.70
2023-04-29T07:06:22.004Z,2.60
2023-04-29T07:08:48.877Z,2.75
2023-04-29T07:11:15.733Z,2.65
2023-04-29T07:13:42.905Z,2.70
2023-04-29T07:16:18.484Z,2.60
2023-04-29T07:18:45.402Z,2.70
2023-04-29T07:21:12.333Z,2.33
2023-04-29T07:23:39.289Z,2.47
2023-04-29T07:26:24.242Z,2.45
2023-04-29T07:28:51.230Z,2.50
2023-04-29T07:31:18.132Z,2.27
2023-04-29T07:33:46.492Z,2.30
2023-04-29T07:36:13.528Z,2.28
2023-04-29T07:38:40.712Z,2.47
2023-04-29T07:41:07.567Z,2.15
2023-04-29T07:43:34.426Z,2.42
2023-04-29T07:46:01.304Z,2.13
2023-04-29T07:48:28.157Z,2.10
2023-04-29T07:50:54.978Z,2.40
2023-04-29T07:53:22.312Z,2.37
2023-04-29T07:55:50.750Z,2.35
2023-04-29T07:58:18.668Z,2.35
2023-04-29T08:00:47.163Z,2.07
2023-04-29T08:03:14.277Z,2.20
2023-04-29T08:05:42.565Z,2.15
2023-04-29T08:08:09.424Z,2.03
2023-04-29T08:10:40.793Z,2.50
2023-04-29T08:13:09.178Z,2.00
2023-04-29T08:15:35.965Z,2.15
2023-04-29T08:18:03.027Z,2.00
2023-04-29T08:20:30.376Z,1.95
2023-04-29T08:22:59.784Z,2.20
2023-04-29T08:25:27.252Z,2.08
2023-04-29T08:27:54.068Z,2.10
2023-04-29T08:30:21.077Z,2.20
2023-04-29T08:32:48.098Z,2.00
2023-04-29T08:35:15.149Z,2.20
2023-04-29T08:37:42.380Z,2.00
2023-04-29T08:40:09.842Z,2.00
2023-04-29T08:42:37.728Z,2.20
2023-04-29T08:45:05.533Z,2.22
2023-04-29T08:47:34.216Z,2.28
2023-04-29T08:50:05.652Z,2.20
2023-04-29T08:52:33.171Z,2.25
2023-04-29T08:55:02.506Z,2.10
2023-04-29T08:57:39.367Z,1.98
2023-04-29T09:00:10.114Z,2.07
2023-04-29T09:02:53.979Z,1.95
2023-04-29T09:05:21.831Z,2.25
2023-04-29T09:07:50.396Z,2.10
2023-04-29T09:10:18.160Z,2.33
2023-04-29T09:12:46.235Z,2.10
2023-04-29T09:15:13.087Z,2.38
2023-04-29T09:17:48.460Z,2.40
2023-04-29T09:20:21.777Z,2.20
2023-04-29T09:22:57.181Z,2.42
2023-04-29T09:25:24.438Z,2.38
2023-04-29T09:27:51.706Z,2.10
2023-04-29T09:30:19.557Z,2.13
2023-04-29T09:32:47.675Z,2.07
2023-04-29T09:35:25.582Z,1.77
2023-04-29T09:37:56.476Z,1.93
2023-04-29T09:40:33.001Z,2.20
2023-04-29T09:43:02.038Z,2.50
2023-04-29T09:45:48.649Z,2.22
2023-04-29T09:48:16.368Z,2.13
2023-04-29T09:50:45.053Z,2.13
2023-04-29T09:53:27.461Z,2.03
2023-04-29T09:55:54.237Z,2.20
2023-04-29T09:58:36.852Z,2.10
2023-04-29T10:01:04.907Z,2.00
2023-04-29T10:03:37.934Z,2.13
2023-04-29T10:06:07.431Z,2.00
2023-04-29T10:08:34.885Z,2.13
2023-04-29T10:11:04.155Z,2.00
2023-04-29T10:13:31.349Z,2.00
2023-04-29T10:16:08.299Z,1.95
2023-04-29T10:18:39.613Z,2.05
2023-04-29T10:21:09.504Z,1.90
2023-04-29T10:23:37.679Z,2.08
2023-04-29T10:26:07.106Z,2.10
2023-04-29T10:28:34.995Z,2.00
2023-04-29T10:31:03.444Z,2.20
2023-04-29T10:33:33.731Z,1.83
2023-04-29T10:36:02.014Z,2.20
2023-04-29T10:38:42.573Z,2.00
2023-04-29T10:41:16.849Z,1.95
2023-04-29T10:43:43.734Z,2.00
2023-04-29T10:46:16.567Z,2.20
2023-04-29T10:48:48.258Z,1.95
2023-04-29T10:51:32.755Z,2.17
2023-04-29T10:54:12.593Z,2.10
2023-04-29T10:56:50.821Z,2.05
2023-04-29T10:59:33.320Z,2.25
2023-04-29T11:02:00.340Z,1.80
2023-04-29T11:04:27.369Z,2.13
2023-04-29T11:06:57.415Z,2.22
2023-04-29T11:09:24.381Z,1.90
2023-04-29T11:12:18.908Z,1.98
2023-04-29T11:14:52.324Z,1.90
2023-04-29T11:17:20.911Z,2.10
2023-04-29T11:19:50.405Z,1.95
2023-04-29T11:22:23.351Z,2.00
2023-04-29T11:24:56.326Z,1.95
2023-04-29T11:27:25.730Z,2.30
2023-04-29T11:29:58.127Z,1.93
2023-04-29T11:32:29.746Z,2.25
2023-04-29T11:35:14.863Z,2.30
2023-04-29T11:37:43.687Z,2.80
2023-04-29T11:40:12.149Z,2.45
2023-04-29T11:42:49.757Z,2.63
2023-04-29T11:45:20.446Z,2.72
2023-04-29T11:47:48.756Z,2.40
2023-04-29T11:50:19.141Z,2.45
2023-04-29T11:52:49.869Z,2.67
2023-04-29T11:55:16.918Z,2.60
2023-04-29T11:57:43.808Z,2.70
2023-04-29T12:00:14.557Z,2.35
2023-04-29T12:02:46.235Z,2.58
2023-04-29T12:05:13.854Z,2.50
2023-04-29T12:07:40.967Z,2.30
2023-04-29T12:10:11.748Z,2.15
2023-04-29T12:12:43.692Z,2.42
2023-04-29T12:15:11.152Z,2.43
2023-04-29T12:17:39.407Z,2.88
2023-04-29T12:20:09.841Z,2.85
2023-04-29T12:22:36.903Z,3.00
2023-04-29T12:25:07.759Z,2.73
2023-04-29T12:27:36.343Z,2.58
2023-04-29T12:30:08.150Z,2.55
2023-04-29T12:32:35.459Z,2.90
2023-04-29T12:35:02.283Z,2.85
2023-04-29T12:37:29.171Z,2.47
2023-04-29T12:39:56.109Z,2.55
2023-04-29T12:42:22.985Z,2.67
2023-04-29T12:44:49.976Z,2.40
2023-04-29T12:47:17.463Z,2.50
2023-04-29T12:49:49.090Z,2.50
2023-04-29T12:52:15.961Z,2.30
2023-04-29T12:54:43.839Z,2.42
2023-04-29T12:57:11.875Z,2.60
2023-04-29T12:59:40.839Z,2.28
2023-04-29T13:02:08.377Z,2.47
2023-04-29T13:04:35.803Z,2.58
2023-04-29T13:07:03.982Z,2.45
2023-04-29T13:09:31.397Z,2.50
2023-04-29T13:11:59.614Z,2.50
2023-04-29T13:14:26.745Z,2.33
2023-04-29T13:16:53.811Z,2.20
2023-04-29T13:19:34.811Z,2.22
2023-04-29T13:22:07.524Z,2.30
2023-04-29T13:24:35.775Z,2.30
2023-04-29T13:27:05.886Z,2.45
2023-04-29T13:29:32.790Z,2.28
2023-04-29T13:31:59.648Z,2.53
2023-04-29T13:34:26.578Z,2.30
2023-04-29T13:36:53.487Z,2.00
2023-04-29T13:39:22.910Z,2.10
2023-04-29T13:41:49.997Z,2.05
2023-04-29T13:44:27.335Z,2.10
2023-04-29T13:47:01.544Z,2.10
2023-04-29T13:50:03.384Z,2.40
2023-04-29T13:53:09.980Z,2.20
2023-04-29T14:00:14.713Z,1.92
2023-04-29T14:05:25.340Z,2.30
2023-04-29T14:07:52.403Z,2.20
2023-04-29T14:10:19.294Z,2.30
2023-04-29T14:12:46.082Z,2.40
2023-04-29T14:15:12.877Z,2.10
2023-04-29T14:17:39.664Z,2.13
2023-04-29T14:20:07.426Z,2.10
2023-04-29T14:22:34.210Z,2.00
2023-04-29T14:25:00.969Z,2.10
2023-04-29T14:27:27.731Z,2.08
2023-04-29T14:29:54.528Z,2.17
2023-04-29T14:32:21.333Z,2.30
2023-04-29T14:34:48.143Z,2.10
2023-04-29T14:37:15.015Z,2.20
2023-04-29T14:39:41.844Z,2.20
2023-04-29T14:42:08.683Z,2.03
2023-04-29T14:44:35.787Z,2.60
2023-04-29T14:47:02.680Z,2.30
2023-04-29T14:49:31.544Z,2.20
2023-04-29T14:51:58.818Z,2.47
2023-04-29T14:54:27.043Z,2.40
2023-04-29T14:56:54.005Z,2.38
2023-04-29T14:59:21.025Z,2.58
2023-04-29T15:01:47.950Z,2.30
2023-04-29T15:04:14.813Z,2.40
2023-04-29T15:06:41.706Z,2.42
2023-04-29T15:09:08.543Z,2.50
2023-04-29T15:11:35.496Z,2.67
2023-04-29T15:14:02.223Z,2.35
2023-04-29T15:16:30.316Z,2.70
2023-04-29T15:18:57.235Z,2.60
2023-04-29T15:21:24.229Z,2.40
2023-04-29T15:23:51.184Z,2.77
2023-04-29T15:26:18.480Z,2.42
2023-04-29T15:28:45.797Z,2.70
2023-04-29T15:31:13.458Z,2.87
2023-04-29T15:33:40.251Z,2.73
2023-04-29T15:36:07.768Z,2.80
2023-04-29T15:38:34.671Z,2.78
2023-04-29T15:41:02.716Z,2.40
2023-04-29T15:43:30.552Z,2.70
2023-04-29T15:45:59.289Z,2.85
2023-04-29T15:48:26.225Z,2.80
2023-04-29T15:50:53.597Z,2.58
2023-04-29T15:53:20.532Z,2.38
2023-04-29T15:55:47.363Z,2.83
2023-04-29T15:58:14.092Z,2.70
2023-04-29T16:00:41.040Z,2.70
2023-04-29T16:03:07.906Z,2.65
2023-04-29T16:05:34.753Z,3.00
2023-04-29T16:08:01.540Z,2.40
2023-04-29T16:10:28.381Z,2.50
2023-04-29T16:12:55.265Z,2.75
2023-04-29T16:15:22.404Z,2.72
2023-04-29T16:17:49.404Z,2.80
2023-04-29T16:20:17.368Z,2.80
2023-04-29T16:22:44.233Z,2.60
2023-04-29T16:25:11.584Z,2.57
2023-04-29T16:27:38.435Z,2.40
2023-04-29T16:30:05.788Z,2.67
2023-04-29T16:32:33.392Z,2.70
2023-04-29T16:35:01.545Z,2.63
2023-04-29T16:37:29.148Z,2.40
2023-04-29T16:39:55.983Z,2.60
2023-04-29T16:42:22.780Z,2.73
2023-04-29T16:44:49.892Z,2.50
2023-04-29T16:47:19.059Z,2.83
2023-04-29T16:49:46.937Z,2.70
2023-04-29T16:52:14.423Z,2.65
2023-04-29T16:54:41.590Z,2.38
2023-04-29T16:57:08.524Z,2.35
2023-04-29T16:59:35.474Z,2.30
2023-04-29T17:02:02.975Z,2.47
2023-04-29T17:04:33.220Z,2.35
2023-04-29T17:07:01.370Z,2.60
2023-04-29T17:09:28.293Z,2.28
2023-04-29T17:11:55.239Z,2.28
2023-04-29T17:14:22.528Z,2.30
2023-04-29T17:16:49.337Z,2.53
2023-04-29T17:19:16.534Z,2.20
2023-04-29T17:21:43.380Z,2.43
2023-04-29T17:24:10.216Z,2.60
2023-04-29T17:26:37.016Z,2.40
2023-04-29T17:29:04.177Z,2.60
2023-04-29T17:31:44.989Z,2.30
2023-04-29T17:34:18.611Z,2.40
2023-04-29T17:36:47.013Z,2.70
2023-04-29T17:39:13.956Z,2.20
2023-04-29T17:41:41.195Z,2.50
2023-04-29T17:44:08.664Z,2.40
2023-04-29T17:46:36.455Z,1.90
2023-04-29T17:49:04.011Z,2.40
2023-04-29T17:51:34.305Z,2.25
2023-04-29T17:54:02.033Z,2.30
2023-04-29T17:56:29.042Z,2.45
2023-04-29T17:58:55.832Z,2.28
2023-04-29T18:01:22.940Z,2.28
2023-04-29T18:03:51.227Z,2.10
2023-04-29T18:06:18.230Z,2.07
2023-04-29T18:08:45.643Z,2.20
2023-04-29T18:11:12.906Z,2.38
2023-04-29T18:13:41.270Z,2.30
2023-04-29T18:16:09.037Z,2.20
2023-04-29T18:18:37.258Z,2.20
2023-04-29T18:21:04.402Z,2.20
2023-04-29T18:23:31.579Z,2.15
2023-04-29T18:25:58.554Z,2.23
2023-04-29T18:28:25.843Z,2.08
2023-04-29T18:30:52.882Z,2.20
2023-04-29T18:33:19.850Z,2.25
2023-04-29T18:35:46.831Z,2.10
2023-04-29T18:38:17.060Z,2.08
2023-04-29T18:40:44.453Z,2.13
2023-04-29T18:43:12.040Z,2.50
2023-04-29T18:45:38.928Z,2.40
2023-04-29T18:48:06.852Z,1.90
2023-04-29T18:50:34.063Z,2.30
2023-04-29T18:53:01.147Z,2.25
2023-04-29T18:55:28.109Z,2.10
2023-04-29T18:57:54.953Z,2.53
2023-04-29T19:00:21.846Z,2.20
2023-04-29T19:02:49.000Z,2.10
2023-04-29T19:05:16.122Z,2.25
2023-04-29T19:07:43.200Z,2.17
2023-04-29T19:10:10.557Z,2.20
2023-04-29T19:12:37.764Z,2.10
2023-04-29T19:15:05.039Z,1.92
2023-04-29T19:17:31.933Z,2.17
2023-04-29T19:19:58.727Z,2.00
2023-04-29T19:22:27.694Z,1.80
2023-04-29T19:24:54.627Z,1.98
2023-04-29T19:27:21.535Z,2.00
2023-04-29T19:29:48.380Z,2.20
2023-04-29T19:32:15.188Z,2.00
2023-04-29T19:34:42.105Z,1.95
2023-04-29T19:37:09.006Z,1.90
2023-04-29T19:39:35.898Z,2.00
2023-04-29T19:42:03.950Z,1.88
2023-04-29T19:44:30.861Z,1.95
2023-04-29T19:46:57.968Z,2.03
2023-04-29T19:49:24.849Z,1.80
2023-04-29T19:51:51.930Z,1.90
2023-04-29T19:54:19.168Z,1.90
2023-04-29T19:56:46.036Z,1.90
2023-04-29T19:59:13.271Z,2.30
2023-04-29T20:01:40.917Z,2.00
2023-04-29T20:04:07.809Z,1.88
2023-04-29T20:06:37.301Z,1.90
2023-04-29T20:09:04.539Z,1.80
2023-04-29T20:11:31.299Z,1.80
2023-04-29T20:13:58.652Z,1.90
2023-04-29T20:16:27.729Z,1.73
2023-04-29T20:18:54.681Z,2.00
2023-04-29T20:21:21.539Z,2.20
2023-04-29T20:23:49.041Z,2.20
2023-04-29T20:26:17.781Z,1.90
2023-04-29T20:28:45.942Z,1.85
2023-04-29T20:31:12.897Z,2.00
2023-04-29T20:33:39.833Z,1.92
2023-04-29T20:36:07.390Z,1.90
2023-04-29T20:38:37.824Z,2.10
2023-04-29T20:41:08.027Z,1.80
2023-04-29T20:43:35.075Z,1.98
2023-04-29T20:46:03.008Z,2.00
2023-04-29T20:48:30.090Z,1.90
2023-04-29T20:50:56.891Z,2.00
2023-04-29T20:53:23.712Z,2.00
2023-04-29T20:55:50.469Z,2.03
2023-04-29T20:58:17.418Z,1.85
2023-04-29T21:00:44.308Z,2.00
2023-04-29T21:03:11.198Z,1.92
2023-04-29T21:05:37.917Z,1.90
2023-04-29T21:08:05.910Z,2.00
2023-04-29T21:10:32.727Z,1.92
2023-04-29T21:12:59.582Z,2.00
2023-04-29T21:15:26.936Z,1.90
2023-04-29T21:17:53.950Z,1.90
2023-04-29T21:20:21.320Z,2.00
2023-04-29T21:22:48.163Z,1.77
2023-04-29T21:25:15.107Z,2.00
2023-04-29T21:27:41.934Z,1.77
2023-04-29T21:30:09.086Z,1.83
2023-04-29T21:32:36.031Z,1.90
2023-04-29T21:35:03.252Z,1.80
2023-04-29T21:37:30.745Z,2.03
2023-04-29T21:40:00.052Z,2.10
2023-04-29T21:42:26.968Z,1.90
2023-04-29T21:44:59.296Z,1.90
2023-04-29T21:47:27.322Z,1.80
2023-04-29T21:49:54.518Z,1.85
2023-04-29T21:52:21.730Z,2.00
2023-04-29T21:54:48.523Z,1.90
2023-04-29T21:57:15.287Z,1.85
2023-04-29T21:59:42.163Z,2.15
2023-04-29T22:02:21.825Z,2.03
2023-04-29T22:04:53.502Z,2.03
2023-04-29T22:07:22.319Z,1.83
2023-04-29T22:09:52.378Z,1.98
2023-04-29T22:12:19.700Z,2.10
2023-04-29T22:14:46.665Z,2.10
2023-04-29T22:17:14.153Z,1.70
2023-04-29T22:19:41.171Z,1.98
2023-04-29T22:22:08.796Z,1.97
2023-04-29T22:24:35.770Z,1.80
2023-04-29T22:27:03.750Z,2.00
2023-04-29T22:29:30.633Z,2.03
2023-04-29T22:31:57.477Z,1.80
2023-04-29T22:34:24.514Z,1.92
2023-04-29T22:36:51.281Z,1.77
2023-04-29T22:39:18.622Z,2.10
2023-04-29T22:41:45.571Z,1.95
2023-04-29T22:44:12.574Z,1.90
2023-04-29T22:46:39.370Z,1.85
2023-04-29T22:49:06.094Z,1.80
2023-04-29T22:51:32.954Z,1.80
2023-04-29T22:53:59.763Z,1.83
2023-04-29T22:56:28.678Z,1.95
2023-04-29T22:58:55.893Z,2.13
2023-04-29T23:01:22.924Z,2.00
2023-04-29T23:03:49.839Z,1.83
2023-04-29T23:06:16.819Z,1.85
2023-04-29T23:08:44.545Z,1.95
2023-04-29T23:11:11.927Z,2.00
2023-04-29T23:13:39.130Z,1.92
2023-04-29T23:16:07.117Z,1.80
2023-04-29T23:18:35.417Z,1.70
2023-04-29T23:21:02.249Z,1.77
2023-04-29T23:23:29.390Z,1.80
2023-04-29T23:25:56.321Z,2.05
2023-04-29T23:28:24.552Z,1.83
2023-04-29T23:30:51.442Z,1.75
2023-04-29T23:33:18.251Z,1.83
2023-04-29T23:35:50.307Z,1.80
2023-04-29T23:38:18.582Z,2.00
2023-04-29T23:40:46.519Z,1.98
2023-04-29T23:43:14.908Z,2.00
2023-04-29T23:45:45.064Z,2.00
2023-04-29T23:48:12.275Z,2.00
2023-04-29T23:50:39.162Z,1.90
2023-04-29T23:53:05.983Z,2.08
2023-04-29T23:55:32.991Z,1.88
2023-04-29T23:57:59.941Z,1.90
